Time;durP1;ratioP1;P1;durP2;ratioP2;P2;SDS_P1;SDS_P2;PMS_P1;PMS_P2;Temp;Humidity;BMP_temperature;BMP_pressure;BME280_temperature;BME280_humidity;BME280_pressure;Samples;Min_cycle;Max_cycle;Signal;HPM_P1;HPM_P2
2023/09/05 00:00:14;;;;;;;1.70;1.60;;;23.50;49.40;;;;;;5018743;28;20524;-76
2023/09/05 00:02:41;;;;;;;1.80;1.70;;;23.50;49.40;;;;;;5017773;28;20230;-73
2023/09/05 00:05:07;;;;;;;1.77;1.67;;;23.50;49.40;;;;;;5013867;28;20501;-76
2023/09/05 00:07:38;;;;;;;1.60;1.50;;;23.50;49.40;;;;;;5017136;28;20487;-76
2023/09/05 00:10:06;;;;;;;1.63;1.53;;;23.50;49.50;;;;;;5015774;28;20558;-76
2023/09/05 00:12:31;;;;;;;2.00;1.90;;;23.50;49.30;;;;;;5016459;28;20467;-73
2023/09/05 00:14:58;;;;;;;1.87;1.77;;;23.50;49.30;;;;;;5015313;28;21124;-72
2023/09/05 00:17:24;;;;;;;1.83;1.73;;;23.50;49.30;;;;;;5016050;28;20309;-73
2023/09/05 00:19:51;;;;;;;1.60;1.50;;;23.50;49.50;;;;;;5017377;28;21881;-72
2023/09/05 00:22:17;;;;;;;1.70;1.60;;;23.50;49.30;;;;;;5016618;28;26686;-76
2023/09/05 00:24:44;;;;;;;1.80;1.70;;;23.50;49.30;;;;;;5016240;28;20466;-72
2023/09/05 00:27:10;;;;;;;1.80;1.70;;;23.50;49.30;;;;;;5015941;28;20464;-75
2023/09/05 00:29:36;;;;;;;1.47;1.37;;;23.50;50.10;;;;;;5017948;28;20463;-76
2023/09/05 00:32:03;;;;;;;1.50;1.40;;;23.50;49.30;;;;;;5016211;28;20811;-75
2023/09/05 00:34:34;;;;;;;1.70;1.60;;;23.50;49.30;;;;;;5017708;28;20745;-73
2023/09/05 00:37:03;;;;;;;1.80;1.70;;;23.50;49.30;;;;;;5017913;28;20471;-76
2023/09/05 00:39:29;;;;;;;1.70;1.60;;;23.50;49.30;;;;;;5013704;28;20509;-75
2023/09/05 00:41:56;;;;;;;1.60;1.50;;;23.50;49.30;;;;;;5014672;28;20558;-73
2023/09/05 00:44:25;;;;;;;2.37;2.03;;;23.50;49.30;;;;;;5015550;28;20539;-77
2023/09/05 00:46:54;;;;;;;1.70;1.60;;;23.50;49.30;;;;;;5015269;28;20483;-73
2023/09/05 00:49:22;;;;;;;1.70;1.60;;;23.50;49.30;;;;;;5015952;28;20467;-75
2023/09/05 00:51:52;;;;;;;3.57;1.80;;;23.50;49.30;;;;;;5015493;28;20559;-73
2023/09/05 00:54:18;;;;;;;1.60;1.50;;;23.40;49.20;;;;;;5017440;28;20451;-72
2023/09/05 00:56:45;;;;;;;1.50;1.40;;;23.40;49.30;;;;;;5017237;28;20464;-75
2023/09/05 00:59:11;;;;;;;1.60;1.50;;;23.50;49.30;;;;;;5015212;28;20466;-75
2023/09/05 01:01:37;;;;;;;1.70;1.60;;;23.50;49.40;;;;;;5016672;28;20466;-72
2023/09/05 01:04:02;;;;;;;2.27;1.90;;;23.50;49.30;;;;;;5018001;28;22356;-75
2023/09/05 01:06:46;;;;;;;1.90;1.80;;;23.50;49.30;;;;;;5014276;28;20238;-72
2023/09/05 01:09:33;;;;;;;2.00;1.90;;;23.50;49.30;;;;;;5012580;28;20226;-75
2023/09/05 01:12:00;;;;;;;1.83;1.73;;;23.40;49.20;;;;;;5009262;28;20668;-71
2023/09/05 01:14:25;;;;;;;1.90;1.80;;;23.40;49.20;;;;;;5017045;28;20459;-75
2023/09/05 01:16:51;;;;;;;1.80;1.50;;;23.40;49.20;;;;;;5013310;28;21371;-76
2023/09/05 01:19:17;;;;;;;1.60;1.50;;;23.40;49.20;;;;;;5016306;28;23866;-77
2023/09/05 01:22:06;;;;;;;1.67;1.57;;;23.40;49.10;;;;;;5271902;23;20340;-73
2023/09/05 01:24:35;;;;;;;1.90;1.80;;;23.40;49.20;;;;;;5000104;28;20311;-72
2023/09/05 01:27:01;;;;;;;1.60;1.50;;;23.40;49.10;;;;;;5001450;28;21138;-68
2023/09/05 01:29:35;;;;;;;1.70;1.60;;;23.50;49.20;;;;;;5006394;28;20468;-67
2023/09/05 01:32:01;;;;;;;1.60;1.50;;;23.40;49.10;;;;;;5000818;28;20546;-79
2023/09/05 01:34:27;;;;;;;1.57;1.47;;;23.50;49.30;;;;;;5002529;28;20444;-68
2023/09/05 01:36:52;;;;;;;3.33;2.20;;;23.40;49.10;;;;;;5002584;28;20448;-79
2023/09/05 01:39:19;;;;;;;1.80;1.70;;;23.40;49.10;;;;;;5002096;28;20314;-69
2023/09/05 01:41:44;;;;;;;1.93;1.83;;;23.40;49.10;;;;;;4983632;28;20337;-70
2023/09/05 01:44:10;;;;;;;1.73;1.63;;;23.40;49.20;;;;;;5000940;28;20473;-66
2023/09/05 01:46:36;;;;;;;1.50;1.40;;;23.40;49.10;;;;;;5003818;28;20249;-73
2023/09/05 01:49:02;;;;;;;1.60;1.50;;;23.40;49.10;;;;;;5003371;28;20675;-67
2023/09/05 01:51:27;;;;;;;1.50;1.40;;;23.40;49.10;;;;;;5000352;28;20480;-66
2023/09/05 01:53:53;;;;;;;1.57;1.47;;;23.40;49.10;;;;;;5001195;28;20227;-75
2023/09/05 01:56:18;;;;;;;1.80;1.70;;;23.40;49.20;;;;;;5000538;28;20230;-76
2023/09/05 01:58:44;;;;;;;1.40;1.30;;;23.50;49.20;;;;;;5007024;28;20262;-74
2023/09/05 02:01:09;;;;;;;1.70;1.60;;;23.40;49.10;;;;;;5003958;28;20585;-73
2023/09/05 02:03:35;;;;;;;1.93;1.60;;;23.40;49.10;;;;;;5001645;28;20707;-71
2023/09/05 02:06:01;;;;;;;1.80;1.70;;;23.40;49.10;;;;;;5000553;28;20272;-73
2023/09/05 02:08:26;;;;;;;1.80;1.60;;;23.40;49.10;;;;;;4985713;28;20452;-71
2023/09/05 02:10:52;;;;;;;1.70;1.60;;;23.40;49.10;;;;;;5002048;28;20238;-70
2023/09/05 02:13:18;;;;;;;1.90;1.80;;;23.40;49.10;;;;;;5000342;28;20222;-68
2023/09/05 02:15:44;;;;;;;1.80;1.70;;;23.40;49.10;;;;;;5000292;28;20323;-67
2023/09/05 02:18:11;;;;;;;1.80;1.70;;;23.40;49.10;;;;;;5003921;28;20702;-68
2023/09/05 02:20:38;;;;;;;1.67;1.57;;;23.40;49.20;;;;;;5003259;28;20480;-67
2023/09/05 02:23:03;;;;;;;1.57;1.47;;;23.40;49.10;;;;;;5001604;28;20464;-73
2023/09/05 02:25:29;;;;;;;1.53;1.43;;;23.50;49.20;;;;;;5003204;28;21310;-75
2023/09/05 02:27:54;;;;;;;1.60;1.50;;;23.40;49.10;;;;;;4986764;28;20296;-73
2023/09/05 02:30:20;;;;;;;2.80;2.00;;;23.40;49.20;;;;;;5005620;28;20219;-72
2023/09/05 02:32:50;;;;;;;1.50;1.40;;;23.40;49.10;;;;;;5001327;28;20623;-68
2023/09/05 02:35:16;;;;;;;1.33;1.23;;;23.40;49.00;;;;;;5002764;28;20433;-70
2023/09/05 02:37:42;;;;;;;1.80;1.70;;;23.40;49.10;;;;;;4990122;28;21063;-69
2023/09/05 02:40:09;;;;;;;1.80;1.70;;;23.40;49.10;;;;;;5000862;28;20230;-75
2023/09/05 02:42:34;;;;;;;1.50;1.40;;;23.40;49.10;;;;;;5001421;28;20222;-69
2023/09/05 02:45:00;;;;;;;1.67;1.57;;;23.40;49.10;;;;;;5000010;28;20471;-79
2023/09/05 02:47:25;;;;;;;1.90;1.60;;;23.40;49.10;;;;;;5003531;28;20226;-67
2023/09/05 02:49:51;;;;;;;1.60;1.50;;;23.40;49.80;;;;;;4999508;28;20237;-70
2023/09/05 02:52:17;;;;;;;1.70;1.60;;;23.40;49.10;;;;;;5000983;28;20241;-75
2023/09/05 02:54:43;;;;;;;1.67;1.57;;;23.40;49.10;;;;;;4997938;28;20222;-69
2023/09/05 02:57:08;;;;;;;1.90;1.80;;;23.40;49.10;;;;;;4999899;28;20512;-68
2023/09/05 02:59:34;;;;;;;1.60;1.50;;;23.40;49.10;;;;;;4982644;28;20273;-73
2023/09/05 03:01:59;;;;;;;1.60;1.50;;;23.40;49.10;;;;;;4989943;28;20447;-76
2023/09/05 03:04:26;;;;;;;2.27;1.73;;;23.40;49.10;;;;;;4999993;28;20222;-72
2023/09/05 03:06:52;;;;;;;1.73;1.63;;;23.40;49.10;;;;;;4987700;28;20238;-68
2023/09/05 03:09:17;;;;;;;1.73;1.63;;;23.40;49.20;;;;;;5005548;28;20460;-75
2023/09/05 03:11:43;;;;;;;2.20;1.97;;;23.40;49.10;;;;;;5004960;28;20235;-78
2023/09/05 03:14:08;;;;;;;1.60;1.50;;;23.40;49.10;;;;;;5005995;28;20310;-67
2023/09/05 03:16:34;;;;;;;1.60;1.50;;;23.40;49.20;;;;;;5000275;28;20219;-76
2023/09/05 03:18:59;;;;;;;1.77;1.67;;;23.40;49.20;;;;;;4993420;28;20329;-72
2023/09/05 03:21:26;;;;;;;1.73;1.63;;;23.40;49.10;;;;;;5008855;28;20246;-72
2023/09/05 03:23:52;;;;;;;1.80;1.70;;;23.40;49.10;;;;;;5006831;28;20238;-68
2023/09/05 03:26:18;;;;;;;1.97;1.87;;;23.40;49.20;;;;;;5005620;28;20459;-72
2023/09/05 03:28:45;;;;;;;1.60;1.50;;;23.40;49.10;;;;;;5004885;28;20218;-74
2023/09/05 03:31:11;;;;;;;1.40;1.30;;;23.40;49.00;;;;;;5003610;28;20471;-73
2023/09/05 03:33:37;;;;;;;1.77;1.63;;;23.40;49.10;;;;;;5005381;28;20505;-67
2023/09/05 03:36:05;;;;;;;1.80;1.70;;;23.40;49.10;;;;;;5004226;28;20606;-78
2023/09/05 03:38:33;;;;;;;1.83;1.73;;;23.40;49.10;;;;;;4988213;28;20308;-70
2023/09/05 03:40:59;;;;;;;1.60;1.50;;;23.40;49.10;;;;;;5007969;28;20468;-79
2023/09/05 03:43:24;;;;;;;1.80;1.70;;;23.40;49.10;;;;;;5002655;28;20467;-71
2023/09/05 03:45:50;;;;;;;1.80;1.70;;;23.40;49.10;;;;;;4991747;28;20248;-68
2023/09/05 03:48:15;;;;;;;1.67;1.57;;;23.40;49.10;;;;;;5003318;28;20238;-72
2023/09/05 03:50:41;;;;;;;1.93;1.83;;;23.40;49.10;;;;;;4996678;28;20223;-73
2023/09/05 03:53:07;;;;;;;1.80;1.70;;;23.40;49.10;;;;;;4980904;28;20592;-76
2023/09/05 03:55:34;;;;;;;1.70;1.60;;;23.40;49.10;;;;;;4989762;28;20246;-75
2023/09/05 03:58:00;;;;;;;1.60;1.50;;;23.40;49.10;;;;;;5005191;28;20235;-72
2023/09/05 04:00:26;;;;;;;1.70;1.60;;;23.40;49.10;;;;;;5007963;28;20459;-73
2023/09/05 04:02:51;;;;;;;1.60;1.50;;;23.40;49.10;;;;;;5012928;28;20473;-66
2023/09/05 04:05:17;;;;;;;1.80;1.70;;;23.40;49.10;;;;;;5010323;28;20251;-68
2023/09/05 04:07:42;;;;;;;1.73;1.63;;;23.40;49.10;;;;;;5010277;28;20221;-73
2023/09/05 04:10:08;;;;;;;2.03;1.93;;;23.40;49.10;;;;;;5010170;28;20226;-69
2023/09/05 04:12:34;;;;;;;1.53;1.43;;;23.40;49.10;;;;;;5002630;28;20230;-69
2023/09/05 04:14:59;;;;;;;1.80;1.70;;;23.40;49.10;;;;;;4993357;28;20222;-66
2023/09/05 04:17:25;;;;;;;1.80;1.70;;;23.40;49.00;;;;;;5011563;28;20611;-69
2023/09/05 04:19:54;;;;;;;1.70;1.60;;;23.40;49.80;;;;;;5010897;28;20238;-66
2023/09/05 04:22:21;;;;;;;1.83;1.73;;;23.40;49.00;;;;;;5008064;28;20238;-62
2023/09/05 04:24:52;;;;;;;1.70;1.60;;;23.40;48.90;;;;;;5011440;28;20483;-65
2023/09/05 04:27:17;;;;;;;1.63;1.53;;;23.40;48.90;;;;;;5009120;28;20464;-63
2023/09/05 04:29:43;;;;;;;1.70;1.60;;;23.50;48.90;;;;;;5014956;28;20600;-66
2023/09/05 04:32:09;;;;;;;1.60;1.50;;;23.50;48.80;;;;;;5010894;28;20223;-66
2023/09/05 04:34:34;;;;;;;1.70;1.60;;;23.50;48.80;;;;;;4992382;28;20250;-71
2023/09/05 04:37:01;;;;;;;1.60;1.50;;;23.50;48.80;;;;;;5009042;28;20543;-76
2023/09/05 04:39:26;;;;;;;1.30;1.20;;;23.50;48.80;;;;;;5010507;28;21510;-78
2023/09/05 04:41:52;;;;;;;1.90;1.80;;;23.50;48.80;;;;;;5006856;28;21399;-74
2023/09/05 04:44:17;;;;;;;1.90;1.80;;;23.50;48.80;;;;;;5008556;28;20230;-72
2023/09/05 04:46:45;;;;;;;1.80;1.70;;;23.50;48.70;;;;;;5007544;28;20269;-70
2023/09/05 04:49:11;;;;;;;1.90;1.80;;;23.50;48.70;;;;;;5005463;28;20222;-67
2023/09/05 04:51:36;;;;;;;1.73;1.63;;;23.50;48.70;;;;;;5011482;28;20467;-67
2023/09/05 04:54:02;;;;;;;1.90;1.80;;;23.50;48.70;;;;;;5004336;28;20230;-70
2023/09/05 04:56:27;;;;;;;1.50;1.40;;;23.50;48.70;;;;;;5007552;28;20222;-71
2023/09/05 04:58:53;;;;;;;1.60;1.50;;;23.50;48.80;;;;;;5010682;28;21056;-77
2023/09/05 05:01:18;;;;;;;1.80;1.70;;;23.50;48.70;;;;;;5000206;28;20369;-68
2023/09/05 05:03:44;;;;;;;1.60;1.50;;;23.50;48.70;;;;;;4998288;28;20246;-69
2023/09/05 05:06:10;;;;;;;1.90;1.80;;;23.50;48.70;;;;;;5000148;28;20678;-66
2023/09/05 05:08:35;;;;;;;1.70;1.60;;;23.50;48.70;;;;;;4992329;28;20218;-69
2023/09/05 05:11:05;;;;;;;2.00;1.90;;;23.50;48.70;;;;;;4999442;28;20235;-74
2023/09/05 05:13:30;;;;;;;1.60;1.50;;;23.50;48.60;;;;;;4994486;28;20270;-74
2023/09/05 05:15:56;;;;;;;1.60;1.50;;;23.50;48.70;;;;;;4997616;28;20474;-68
2023/09/05 05:18:21;;;;;;;1.70;1.60;;;23.50;48.60;;;;;;4981695;28;20305;-66
2023/09/05 05:20:47;;;;;;;1.80;1.70;;;23.50;48.70;;;;;;4996177;28;20236;-70
2023/09/05 05:23:12;;;;;;;1.60;1.50;;;23.50;48.60;;;;;;4993386;28;20332;-62
2023/09/05 05:25:38;;;;;;;1.80;1.70;;;23.50;48.60;;;;;;4994184;28;20242;-68
2023/09/05 05:28:05;;;;;;;1.70;1.60;;;23.50;48.60;;;;;;4990459;28;20234;-77
2023/09/05 05:30:35;;;;;;;1.80;1.70;;;23.50;48.60;;;;;;4993974;28;20226;-73
2023/09/05 05:33:01;;;;;;;2.00;1.80;;;23.50;48.60;;;;;;4999980;28;20542;-71
2023/09/05 05:35:27;;;;;;;1.60;1.50;;;23.50;48.70;;;;;;5001381;28;20761;-67
2023/09/05 05:37:52;;;;;;;3.37;1.60;;;23.50;48.60;;;;;;5000305;28;20377;-68
2023/09/05 05:40:18;;;;;;;1.90;1.80;;;23.50;48.70;;;;;;5002161;28;20234;-75
2023/09/05 05:42:43;;;;;;;1.77;1.67;;;23.50;48.60;;;;;;5003079;28;20266;-71
2023/09/05 05:45:10;;;;;;;1.70;1.60;;;23.50;48.60;;;;;;5002743;28;20288;-68
2023/09/05 05:47:35;;;;;;;1.60;1.50;;;23.50;48.70;;;;;;4998299;28;20251;-74
2023/09/05 05:50:01;;;;;;;1.90;1.80;;;23.50;48.60;;;;;;4998933;28;20559;-69
2023/09/05 05:52:27;;;;;;;1.73;1.63;;;23.50;48.60;;;;;;4997390;28;20234;-70
2023/09/05 05:54:53;;;;;;;1.90;1.80;;;23.50;48.60;;;;;;5000227;28;20806;-72
2023/09/05 05:57:18;;;;;;;1.80;1.70;;;23.50;48.60;;;;;;4992739;28;20333;-67
2023/09/05 05:59:44;;;;;;;1.50;1.40;;;23.50;48.50;;;;;;4975184;28;20223;-77
2023/09/05 06:02:09;;;;;;;1.73;1.63;;;23.50;48.50;;;;;;4993369;28;20243;-73
2023/09/05 06:04:35;;;;;;;2.00;1.90;;;23.50;48.50;;;;;;4996525;28;20613;-75
2023/09/05 06:07:00;;;;;;;1.90;1.80;;;23.50;48.50;;;;;;4993200;28;20242;-75
2023/09/05 06:09:27;;;;;;;1.80;1.60;;;23.50;48.50;;;;;;4999132;28;20628;-73
2023/09/05 06:11:53;;;;;;;2.00;1.90;;;23.50;48.40;;;;;;4997881;28;20531;-75
2023/09/05 06:14:19;;;;;;;1.87;1.77;;;23.50;48.40;;;;;;4998620;28;20443;-77
2023/09/05 06:16:46;;;;;;;2.00;1.90;;;23.50;48.40;;;;;;4997385;28;20587;-71
2023/09/05 06:19:12;;;;;;;1.80;1.70;;;23.50;48.40;;;;;;4999057;28;20475;-76
2023/09/05 06:21:38;;;;;;;1.80;1.70;;;23.50;48.30;;;;;;4985763;28;20811;-67
2023/09/05 06:24:04;;;;;;;1.60;1.50;;;23.50;48.40;;;;;;4992571;28;21082;-67
2023/09/05 06:26:29;;;;;;;1.80;1.70;;;23.50;49.10;;;;;;4997739;28;21437;-71
2023/09/05 06:28:55;;;;;;;2.17;2.07;;;23.50;48.40;;;;;;4995083;28;20885;-72
2023/09/05 06:31:20;;;;;;;2.00;1.90;;;23.50;48.30;;;;;;4994824;28;20694;-72
2023/09/05 06:33:46;;;;;;;2.17;1.80;;;23.50;48.30;;;;;;4996481;28;20313;-74
2023/09/05 06:36:11;;;;;;;1.90;1.80;;;23.50;48.30;;;;;;4993783;28;20226;-78
2023/09/05 06:38:37;;;;;;;1.97;1.87;;;23.50;48.30;;;;;;4989295;28;20592;-79
2023/09/05 06:41:06;;;;;;;1.73;1.63;;;23.50;48.40;;;;;;4991671;28;20273;-72
2023/09/05 06:43:32;;;;;;;1.90;1.80;;;23.50;48.30;;;;;;4994587;28;20963;-64
2023/09/05 06:46:05;;;;;;;1.93;1.83;;;23.50;48.20;;;;;;4996029;28;20479;-68
2023/09/05 06:48:31;;;;;;;1.70;1.60;;;23.50;48.30;;;;;;4992119;28;22329;-64
2023/09/05 06:51:00;;;;;;;2.30;1.87;;;23.50;48.30;;;;;;4999089;28;20468;-68
2023/09/05 06:53:27;;;;;;;1.90;1.80;;;23.50;48.30;;;;;;4997169;28;21769;-66
2023/09/05 06:55:53;;;;;;;1.80;1.70;;;23.50;48.30;;;;;;5004612;28;20528;-70
2023/09/05 06:58:22;;;;;;;2.07;1.97;;;23.50;48.30;;;;;;5005025;28;20480;-71
2023/09/05 07:00:51;;;;;;;1.90;1.80;;;23.50;48.20;;;;;;4997572;28;24542;-68
2023/09/05 07:03:17;;;;;;;1.83;1.73;;;23.50;48.30;;;;;;4999418;28;20547;-71
2023/09/05 07:05:42;;;;;;;1.90;1.80;;;23.50;48.30;;;;;;4997819;28;20472;-63
2023/09/05 07:08:09;;;;;;;1.80;1.70;;;23.60;48.40;;;;;;5004580;28;20222;-70
2023/09/05 07:10:35;;;;;;;2.13;2.03;;;23.50;48.20;;;;;;4997733;28;20223;-71
2023/09/05 07:13:01;;;;;;;1.67;1.57;;;23.50;48.20;;;;;;5000695;28;21201;-67
2023/09/05 07:15:26;;;;;;;1.70;1.60;;;23.60;48.30;;;;;;4999023;28;20861;-66
2023/09/05 07:17:52;;;;;;;1.70;1.60;;;23.60;48.70;;;;;;5000086;28;20901;-66
2023/09/05 07:20:18;;;;;;;3.60;1.80;;;23.60;48.40;;;;;;4981557;28;20377;-66
2023/09/05 07:22:43;;;;;;;1.90;1.80;;;23.60;48.30;;;;;;4996574;28;20231;-67
2023/09/05 07:25:09;;;;;;;1.50;1.40;;;23.60;48.30;;;;;;4997971;28;20219;-63
2023/09/05 07:27:34;;;;;;;2.23;1.97;;;23.60;48.30;;;;;;5008025;28;20297;-66
2023/09/05 07:30:00;;;;;;;1.70;1.60;;;23.60;49.00;;;;;;4996374;28;20292;-65
2023/09/05 07:32:25;;;;;;;1.70;1.60;;;23.60;48.20;;;;;;5000769;28;20318;-65
2023/09/05 07:34:51;;;;;;;1.73;1.63;;;23.60;48.30;;;;;;4998509;28;20345;-66
2023/09/05 07:37:16;;;;;;;1.60;1.50;;;23.60;48.20;;;;;;4998032;28;20304;-64
2023/09/05 07:39:49;;;;;;;2.00;1.90;;;23.60;48.30;;;;;;4997294;28;20821;-69
2023/09/05 07:42:15;;;;;;;2.10;1.90;;;23.60;48.30;;;;;;4998389;28;20222;-67
2023/09/05 07:44:40;;;;;;;1.63;1.53;;;23.60;48.30;;;;;;4995257;28;20463;-68
2023/09/05 07:47:06;;;;;;;1.93;1.83;;;23.60;49.10;;;;;;4991227;28;20253;-65
2023/09/05 07:49:40;;;;;;;1.80;1.70;;;23.60;48.20;;;;;;4993228;28;20265;-66
2023/09/05 07:52:06;;;;;;;2.27;2.17;;;23.60;48.30;;;;;;4990985;28;20221;-65
2023/09/05 07:54:33;;;;;;;1.80;1.70;;;23.60;48.20;;;;;;4993155;28;20479;-65
2023/09/05 07:56:59;;;;;;;1.80;1.70;;;23.60;48.20;;;;;;4990702;28;21072;-65
2023/09/05 07:59:24;;;;;;;1.70;1.60;;;23.60;48.20;;;;;;4995516;28;20459;-64
2023/09/05 08:01:50;;;;;;;1.83;1.73;;;23.60;48.20;;;;;;4990150;28;20848;-66
2023/09/05 08:04:15;;;;;;;1.63;1.53;;;23.60;48.30;;;;;;4992238;28;20223;-67
2023/09/05 08:06:41;;;;;;;1.67;1.57;;;23.60;48.20;;;;;;4988111;28;21982;-70
2023/09/05 08:09:07;;;;;;;1.90;1.80;;;23.60;48.20;;;;;;4992551;28;20716;-67
2023/09/05 08:11:33;;;;;;;1.77;1.67;;;23.60;48.20;;;;;;4992548;28;20465;-66
2023/09/05 08:13:58;;;;;;;1.60;1.50;;;23.60;48.20;;;;;;4989032;28;20223;-69
2023/09/05 08:16:24;;;;;;;1.80;1.70;;;23.60;48.20;;;;;;4988609;28;20691;-66
2023/09/05 08:18:49;;;;;;;1.70;1.60;;;23.60;48.20;;;;;;4990614;28;20218;-71
2023/09/05 08:21:16;;;;;;;2.10;2.00;;;23.60;48.10;;;;;;4955300;28;1038114;-70
2023/09/05 08:23:42;;;;;;;1.80;1.70;;;23.60;48.20;;;;;;4975341;28;20313;-70
2023/09/05 08:26:10;;;;;;;1.60;1.50;;;23.60;48.20;;;;;;4989681;28;20566;-67
2023/09/05 08:28:40;;;;;;;2.00;1.90;;;23.60;48.20;;;;;;4993898;28;20302;-75
2023/09/05 08:31:06;;;;;;;1.50;1.40;;;23.60;48.20;;;;;;4973887;28;20508;-67
2023/09/05 08:33:31;;;;;;;2.07;1.97;;;23.60;48.20;;;;;;4993057;28;20580;-69
2023/09/05 08:35:57;;;;;;;3.20;1.67;;;23.60;48.20;;;;;;4994822;28;20642;-70
2023/09/05 08:38:23;;;;;;;1.70;1.60;;;23.60;48.20;;;;;;4992488;28;20226;-81
2023/09/05 08:40:48;;;;;;;1.50;1.40;;;23.60;48.30;;;;;;4992667;28;20887;-72
2023/09/05 08:43:16;;;;;;;1.70;1.60;;;23.70;48.20;;;;;;4995795;28;20223;-71
2023/09/05 08:45:45;;;;;;;1.60;1.50;;;23.60;48.20;;;;;;4992140;28;20663;-71
2023/09/05 08:48:10;;;;;;;1.63;1.53;;;23.60;48.10;;;;;;4991834;28;20838;-76
2023/09/05 08:50:39;;;;;;;1.60;1.50;;;23.60;48.20;;;;;;4989925;28;20991;-73
2023/09/05 08:53:11;;;;;;;1.80;1.70;;;23.60;48.20;;;;;;4996246;28;20215;-78
2023/09/05 08:55:40;;;;;;;1.90;1.80;;;23.60;48.10;;;;;;4993596;28;20475;-73
2023/09/05 08:58:10;;;;;;;1.70;1.60;;;23.60;48.20;;;;;;4990111;28;20460;-80
2023/09/05 09:00:36;;;;;;;2.47;1.37;;;23.70;49.10;;;;;;4991478;28;21345;-77
2023/09/05 09:03:04;;;;;;;1.60;1.50;;;23.60;48.20;;;;;;4994740;28;20480;-76
2023/09/05 09:05:30;;;;;;;1.90;1.80;;;23.60;48.20;;;;;;4989329;28;20492;-76
2023/09/05 09:07:56;;;;;;;1.50;1.40;;;23.60;48.20;;;;;;4992262;28;20468;-76
2023/09/05 09:10:21;;;;;;;1.80;1.70;;;23.70;48.20;;;;;;4992637;28;20654;-67
2023/09/05 09:12:55;;;;;;;1.93;1.83;;;23.70;48.20;;;;;;4993838;28;20230;-72
2023/09/05 09:15:25;;;;;;;2.10;2.00;;;23.70;48.20;;;;;;4990711;28;20692;-79
2023/09/05 09:17:52;;;;;;;1.60;1.50;;;23.70;48.20;;;;;;4985178;28;20553;-74
2023/09/05 09:20:19;;;;;;;2.00;1.90;;;23.70;48.20;;;;;;4990481;28;20464;-73
2023/09/05 09:22:50;;;;;;;1.60;1.50;;;23.70;48.20;;;;;;4990970;28;20841;-72
2023/09/05 09:25:22;;;;;;;1.70;1.60;;;23.70;48.20;;;;;;4992851;28;20488;-71
2023/09/05 09:27:54;;;;;;;1.50;1.40;;;23.70;48.20;;;;;;4985447;28;20479;-78
2023/09/05 09:30:24;;;;;;;1.70;1.60;;;23.70;48.20;;;;;;4989291;28;20456;-70
2023/09/05 09:32:54;;;;;;;1.80;1.70;;;23.70;48.10;;;;;;4993074;28;20496;-70
2023/09/05 09:35:20;;;;;;;1.63;1.53;;;23.70;48.20;;;;;;4994709;28;20456;-71
2023/09/05 09:37:47;;;;;;;1.70;1.60;;;23.70;48.20;;;;;;4987572;28;20978;-79
2023/09/05 09:40:16;;;;;;;1.40;1.30;;;23.70;48.20;;;;;;4985660;28;20942;-76
2023/09/05 09:42:43;;;;;;;1.70;1.60;;;23.70;48.20;;;;;;4993337;28;20940;-73
2023/09/05 09:45:09;;;;;;;1.83;1.73;;;23.70;48.20;;;;;;4995409;28;20455;-77
2023/09/05 09:47:40;;;;;;;1.70;1.60;;;23.70;48.20;;;;;;4998241;28;20565;-73
2023/09/05 09:50:06;;;;;;;1.70;1.60;;;23.70;48.30;;;;;;4994141;28;20543;-78
2023/09/05 09:52:34;;;;;;;2.10;2.00;;;23.70;48.20;;;;;;4993917;28;20472;-69
2023/09/05 09:55:03;;;;;;;1.67;1.57;;;23.70;48.20;;;;;;4994171;28;21239;-67
2023/09/05 09:57:38;;;;;;;2.03;1.93;;;23.70;48.20;;;;;;4978586;28;22557;-65
2023/09/05 10:00:15;;;;;;;1.80;1.70;;;23.70;48.20;;;;;;4985156;28;20480;-70
2023/09/05 10:02:45;;;;;;;1.60;1.50;;;23.70;48.30;;;;;;4990874;28;21013;-73
2023/09/05 10:05:15;;;;;;;1.60;1.50;;;23.70;48.20;;;;;;4974074;28;20475;-72
2023/09/05 10:07:41;;;;;;;1.67;1.43;;;23.70;48.30;;;;;;4990922;28;20992;-74
2023/09/05 10:10:09;;;;;;;1.70;1.60;;;23.70;48.20;;;;;;4985412;28;20507;-66
2023/09/05 10:12:36;;;;;;;1.70;1.60;;;23.70;48.30;;;;;;4987335;28;20467;-69
2023/09/05 10:15:05;;;;;;;1.93;1.83;;;23.70;48.20;;;;;;4988957;28;21068;-72
2023/09/05 10:17:32;;;;;;;1.53;1.43;;;23.70;48.20;;;;;;4985791;28;20477;-70
2023/09/05 10:19:58;;;;;;;1.50;1.40;;;23.70;48.20;;;;;;4986986;28;20592;-65
2023/09/05 10:22:24;;;;;;;1.73;1.63;;;23.70;48.10;;;;;;4989455;28;20471;-74
2023/09/05 10:24:51;;;;;;;1.60;1.50;;;23.70;48.20;;;;;;4987706;28;20830;-64
2023/09/05 10:27:17;;;;;;;1.80;1.70;;;23.70;48.20;;;;;;4984788;28;20238;-74
2023/09/05 10:29:45;;;;;;;1.50;1.40;;;23.70;48.20;;;;;;4984598;28;20472;-68
2023/09/05 10:32:20;;;;;;;2.00;1.90;;;23.70;48.20;;;;;;4990664;28;20551;-64
2023/09/05 10:34:50;;;;;;;1.50;1.40;;;23.70;48.20;;;;;;4991583;28;21079;-75
2023/09/05 10:37:21;;;;;;;3.33;1.67;;;23.70;48.20;;;;;;4990453;28;20468;-75
2023/09/05 10:39:48;;;;;;;1.80;1.70;;;23.70;48.10;;;;;;4990345;28;21145;-66
2023/09/05 10:42:14;;;;;;;1.60;1.50;;;23.70;48.10;;;;;;4990749;28;20998;-66
2023/09/05 10:44:50;;;;;;;1.90;1.80;;;23.70;48.30;;;;;;4990681;28;20541;-66
2023/09/05 10:47:29;;;;;;;1.70;1.60;;;23.70;48.20;;;;;;4986897;28;20479;-75
2023/09/05 10:50:05;;;;;;;1.60;1.50;;;23.70;48.20;;;;;;4980454;28;20476;-75
2023/09/05 10:52:31;;;;;;;1.57;1.47;;;23.70;48.20;;;;;;4987296;28;20511;-74
2023/09/05 10:55:00;;;;;;;1.50;1.40;;;23.70;48.20;;;;;;4989954;28;20448;-66
2023/09/05 10:57:33;;;;;;;1.40;1.30;;;23.70;48.20;;;;;;4990430;28;20460;-65
2023/09/05 10:59:58;;;;;;;1.70;1.60;;;23.80;48.20;;;;;;4995862;28;21242;-73
2023/09/05 11:02:25;;;;;;;1.57;1.47;;;23.80;48.20;;;;;;4994200;28;20487;-74
2023/09/05 11:04:53;;;;;;;1.53;1.43;;;23.80;48.30;;;;;;4990690;28;20242;-67
2023/09/05 11:07:21;;;;;;;1.70;1.60;;;23.80;48.30;;;;;;4993352;28;20578;-70
2023/09/05 11:09:49;;;;;;;1.60;1.50;;;23.80;48.30;;;;;;4992915;28;20465;-67
2023/09/05 11:12:16;;;;;;;1.80;1.70;;;23.70;48.10;;;;;;4992670;28;20480;-69
2023/09/05 11:14:41;;;;;;;1.90;1.80;;;23.80;48.30;;;;;;4983829;28;20464;-64
2023/09/05 11:17:12;;;;;;;1.50;1.40;;;23.80;48.30;;;;;;4991956;28;21213;-76
2023/09/05 11:19:42;;;;;;;1.60;1.50;;;23.80;48.20;;;;;;4996212;28;20230;-72
2023/09/05 11:22:21;;;;;;;1.87;1.77;;;23.80;48.20;;;;;;4991999;28;20471;-73
2023/09/05 11:24:58;;;;;;;1.73;1.63;;;23.80;48.20;;;;;;4986702;28;20464;-65
2023/09/05 11:27:32;;;;;;;1.57;1.47;;;23.80;48.10;;;;;;4987249;28;20554;-70
2023/09/05 11:30:00;;;;;;;1.73;1.63;;;23.80;48.20;;;;;;4996574;28;20452;-66
2023/09/05 11:32:33;;;;;;;1.67;1.53;;;23.80;48.20;;;;;;4993229;28;20475;-67
2023/09/05 11:35:00;;;;;;;1.40;1.30;;;23.80;48.20;;;;;;4996563;28;21521;-69
2023/09/05 11:37:28;;;;;;;1.60;1.50;;;23.80;48.20;;;;;;4996853;28;20476;-66
2023/09/05 11:39:54;;;;;;;1.70;1.60;;;23.80;48.20;;;;;;4980441;28;20898;-67
2023/09/05 11:42:19;;;;;;;1.50;1.40;;;23.80;48.20;;;;;;4993282;28;20494;-66
2023/09/05 11:44:45;;;;;;;1.70;1.60;;;23.80;48.10;;;;;;4993542;28;21933;-67
2023/09/05 11:47:12;;;;;;;1.50;1.40;;;23.80;48.10;;;;;;4993228;28;20258;-68
2023/09/05 11:49:39;;;;;;;1.57;1.47;;;23.80;48.20;;;;;;4997649;28;20223;-73
2023/09/05 11:52:05;;;;;;;1.60;1.50;;;23.80;48.30;;;;;;4992758;28;20512;-70
2023/09/05 11:54:31;;;;;;;1.70;1.60;;;23.80;48.20;;;;;;4978343;28;20471;-73
2023/09/05 11:56:58;;;;;;;1.63;1.53;;;23.80;48.10;;;;;;4996924;28;20226;-71
2023/09/05 11:59:24;;;;;;;1.53;1.43;;;23.80;48.10;;;;;;4999084;28;20564;-71
2023/09/05 12:01:51;;;;;;;1.50;1.40;;;23.80;48.20;;;;;;4997664;28;20457;-67
2023/09/05 12:04:16;;;;;;;1.90;1.80;;;23.80;48.20;;;;;;4999029;28;20574;-69
2023/09/05 12:06:46;;;;;;;1.63;1.53;;;23.80;48.10;;;;;;4999432;28;20485;-73
2023/09/05 12:09:12;;;;;;;1.63;1.53;;;23.80;48.10;;;;;;5000644;28;20240;-79
2023/09/05 12:11:38;;;;;;;1.53;1.43;;;23.80;48.10;;;;;;5004602;28;20499;-73
2023/09/05 12:14:04;;;;;;;1.43;1.33;;;23.80;48.10;;;;;;5005564;28;20582;-72
2023/09/05 12:16:30;;;;;;;1.77;1.67;;;23.80;48.20;;;;;;5005197;28;20645;-79
2023/09/05 12:19:02;;;;;;;1.63;1.53;;;23.80;48.20;;;;;;5001966;28;20818;-70
2023/09/05 12:21:42;;;;;;;1.70;1.60;;;23.80;48.20;;;;;;5006335;28;20258;-71
2023/09/05 12:24:23;;;;;;;1.60;1.50;;;23.80;48.10;;;;;;5001993;28;20983;-73
2023/09/05 12:26:50;;;;;;;1.60;1.47;;;23.80;48.10;;;;;;5004924;28;20480;-72
2023/09/05 12:29:36;;;;;;;1.77;1.67;;;23.80;48.30;;;;;;5001072;28;20476;-78
2023/09/05 12:32:02;;;;;;;1.50;1.40;;;23.80;48.10;;;;;;4984369;28;20854;-74
2023/09/05 12:34:28;;;;;;;1.80;1.70;;;23.80;48.10;;;;;;5005667;28;20504;-78
2023/09/05 12:36:53;;;;;;;1.67;1.57;;;23.80;48.20;;;;;;5006372;28;20309;-70
2023/09/05 12:39:19;;;;;;;1.70;1.60;;;23.80;48.20;;;;;;5001963;28;20275;-69
2023/09/05 12:41:46;;;;;;;1.70;1.60;;;23.80;48.10;;;;;;5004362;28;20303;-75
2023/09/05 12:44:11;;;;;;;1.47;1.37;;;23.80;48.20;;;;;;5003100;28;20321;-71
2023/09/05 12:46:37;;;;;;;1.33;1.23;;;23.80;48.10;;;;;;5006742;28;20471;-79